Archival Weather

Chicago O'Hare International

Chicago, Illinois (KORD)

Report from: Sunday, January 14, 2024 11:51 PM CST
Current time: Tuesday, June 18, 2024 6:20 AM CDT

Current weather – Weather history – Daily summaries
Weather forecast

Temperature-23.3°C (-9.9°F)
Wind chill-35.2°C (-31.3°F)
Dew point-26.7°C (-16.1°F)
Winds 12 kts (6.2 m/s, 13.8 mph) West-Southwest (240°)
Visibility10 mi. (16.1 km)
Clouds Few clouds 2,000 ft. (610 m)
Altimeter30.22 in.Hg (1023 mB)
Relative humidity73 %
Density altitude-5,356 ft. (-1,633 m)
Sea-level pressure102.6 kPa (1026 mB, 30.29 in.Hg)
Max temp last 6 hours-22.8°C (-9.0°F)
Min temp last 6 hours-23.3°C (-9.9°F)
Max temp last 24 hours-16.1°C (3.0°F)
Min temp last 24 hours-23.3°C (-9.9°F)
Snow depth4.00 in. (102 mm)
Remarks Automated weather observing station with precipitation discriminator
Pressure falling, then rising
Flight conditions Visual Meteorological Conditions
Raw dataKORD 150551Z 24012KT 10SM FEW020 M23/M27 A3022 RMK AO2 SLP256 4/004 T12331267 11228 21233 411611233 55001
An error has occurred. This application may no longer respond until reloaded. Reload 🗙